Time;durP1;ratioP1;P1;durP2;ratioP2;P2;SDS_P1;SDS_P2;PMS_P1;PMS_P2;Temp;Humidity;BMP_temperature;BMP_pressure;BME280_temperature;BME280_humidity;BME280_pressure;Samples;Min_cycle;Max_cycle;Signal;HPM_P1;HPM_P2
2021/12/06 00:00:57;;;;;;;13.00;12.60;;;20.90;55.10;;;;;;5013540;28;20524;-57
2021/12/06 00:03:28;;;;;;;12.67;12.27;;;20.80;55.20;;;;;;5013212;28;20450;-55
2021/12/06 00:05:55;;;;;;;13.77;13.30;;;20.80;55.50;;;;;;5013341;28;20454;-56
2021/12/06 00:08:22;;;;;;;13.40;13.00;;;20.80;55.60;;;;;;5013223;28;20994;-57
2021/12/06 00:10:50;;;;;;;13.20;12.80;;;20.70;55.70;;;;;;5013189;28;20496;-56
2021/12/06 00:13:22;;;;;;;13.73;13.33;;;20.60;55.90;;;;;;5013014;28;20512;-58
2021/12/06 00:15:50;;;;;;;13.60;13.10;;;20.60;56.10;;;;;;5012888;28;20817;-54
2021/12/06 00:18:17;;;;;;;13.33;12.93;;;20.50;56.30;;;;;;5012986;28;20468;-55
2021/12/06 00:20:44;;;;;;;13.20;12.80;;;20.50;56.50;;;;;;5031841;28;20457;-57
2021/12/06 00:23:11;;;;;;;13.07;12.67;;;20.40;56.70;;;;;;5032609;28;20449;-57
2021/12/06 00:25:38;;;;;;;12.87;12.50;;;20.40;57.00;;;;;;5032668;28;20448;-59
2021/12/06 00:28:06;;;;;;;13.43;13.03;;;20.30;57.10;;;;;;5032533;28;20473;-56
2021/12/06 00:30:34;;;;;;;12.40;12.00;;;20.30;57.30;;;;;;5032417;28;20441;-59
2021/12/06 00:33:00;;;;;;;12.30;12.00;;;20.20;57.40;;;;;;5032278;28;20807;-55
2021/12/06 00:35:29;;;;;;;12.70;12.30;;;20.20;57.60;;;;;;5032556;28;20923;-56
2021/12/06 00:37:58;;;;;;;12.53;12.17;;;20.10;57.60;;;;;;5032243;28;20512;-60
2021/12/06 00:40:28;;;;;;;13.10;12.60;;;20.20;57.80;;;;;;5032389;28;20815;-57
2021/12/06 00:42:55;;;;;;;12.70;12.30;;;20.10;57.70;;;;;;5032146;28;20448;-58
2021/12/06 00:45:21;;;;;;;12.80;12.40;;;20.10;57.80;;;;;;5032332;28;20460;-57
2021/12/06 00:47:50;;;;;;;12.53;12.23;;;20.10;58.00;;;;;;5032313;28;20931;-59
2021/12/06 00:50:17;;;;;;;13.10;12.70;;;20.00;58.10;;;;;;5032364;28;20448;-59
2021/12/06 00:52:44;;;;;;;13.30;12.90;;;20.00;58.30;;;;;;5032024;28;20459;-54
2021/12/06 00:55:12;;;;;;;12.40;12.00;;;19.90;58.20;;;;;;5032469;28;20445;-58
2021/12/06 00:57:39;;;;;;;13.97;13.57;;;19.90;58.40;;;;;;5031984;28;20488;-61
2021/12/06 01:00:09;;;;;;;12.97;12.57;;;19.80;58.50;;;;;;5032033;28;20930;-55
2021/12/06 01:02:35;;;;;;;12.30;11.90;;;19.80;58.60;;;;;;5031918;28;20449;-56
2021/12/06 01:05:05;;;;;;;12.80;12.40;;;19.80;58.90;;;;;;5032081;28;20786;-56
2021/12/06 01:07:32;;;;;;;13.80;13.40;;;19.70;58.90;;;;;;5032008;28;20942;-55
2021/12/06 01:09:59;;;;;;;13.30;12.90;;;19.70;59.00;;;;;;5031851;28;20684;-57
2021/12/06 01:12:25;;;;;;;14.17;13.67;;;19.70;59.20;;;;;;5031658;28;20861;-56
2021/12/06 01:14:52;;;;;;;13.97;13.50;;;19.60;59.20;;;;;;5031835;28;20449;-57
2021/12/06 01:17:19;;;;;;;12.67;12.27;;;19.60;59.50;;;;;;5031783;28;21025;-58
2021/12/06 01:19:45;;;;;;;12.97;12.60;;;19.60;59.60;;;;;;5031493;28;20473;-58
2021/12/06 01:22:25;;;;;;;12.87;12.50;;;19.50;59.70;;;;;;5031678;28;20962;-56
2021/12/06 01:24:57;;;;;;;13.40;13.00;;;19.50;59.80;;;;;;5031758;28;20543;-60
2021/12/06 01:27:43;;;;;;;12.93;12.50;;;19.40;59.80;;;;;;5031103;28;20444;-57
2021/12/06 01:30:32;;;;;;;12.70;12.27;;;19.40;60.00;;;;;;5031610;28;20445;-56
2021/12/06 01:33:17;;;;;;;13.87;13.37;;;19.50;60.00;;;;;;5031494;28;20540;-59
2021/12/06 01:41:14;;;;;;;13.20;12.80;;;19.40;60.80;;;;;;5024500;28;20479;-56
2021/12/06 01:44:03;;;;;;;12.70;12.30;;;19.40;61.00;;;;;;5031346;28;20849;-55
2021/12/06 01:46:31;;;;;;;12.27;11.97;;;19.40;61.20;;;;;;5031571;28;20445;-58
2021/12/06 01:48:58;;;;;;;13.40;13.00;;;19.40;61.40;;;;;;5031481;28;20823;-56
2021/12/06 01:51:25;;;;;;;12.90;12.50;;;19.30;61.40;;;;;;5031316;28;20870;-55
2021/12/06 01:53:53;;;;;;;13.10;12.70;;;19.30;61.80;;;;;;5031430;28;20938;-53
2021/12/06 01:56:20;;;;;;;13.00;12.60;;;19.30;62.10;;;;;;5031359;28;20686;-52
2021/12/06 01:58:47;;;;;;;13.13;12.73;;;19.30;62.10;;;;;;5031227;28;20464;-51
2021/12/06 02:01:14;;;;;;;13.17;12.80;;;19.20;62.30;;;;;;5031293;28;20809;-51
2021/12/06 02:03:40;;;;;;;13.20;12.80;;;19.30;62.30;;;;;;5031114;28;20445;-53
2021/12/06 02:06:07;;;;;;;13.67;13.17;;;19.20;62.40;;;;;;5031283;28;20949;-51
2021/12/06 02:08:34;;;;;;;13.10;12.70;;;19.20;62.70;;;;;;5031325;28;20962;-53
2021/12/06 02:11:03;;;;;;;13.10;12.70;;;19.20;62.80;;;;;;5031171;28;20449;-54
2021/12/06 02:13:38;;;;;;;13.00;12.60;;;19.20;63.00;;;;;;5031145;28;20441;-51
2021/12/06 02:16:06;;;;;;;12.40;12.10;;;19.10;63.20;;;;;;5031395;28;20448;-54
2021/12/06 02:18:42;;;;;;;13.27;12.87;;;19.10;63.50;;;;;;5031100;28;20539;-51
2021/12/06 02:21:17;;;;;;;13.03;12.63;;;19.10;63.50;;;;;;5031179;28;20863;-52
2021/12/06 02:23:45;;;;;;;13.07;12.67;;;19.10;63.60;;;;;;5030942;28;20445;-51
2021/12/06 02:26:12;;;;;;;12.87;12.47;;;19.10;63.80;;;;;;5031211;28;20460;-53
2021/12/06 02:28:39;;;;;;;13.13;12.80;;;19.10;63.90;;;;;;5031093;28;20461;-51
2021/12/06 02:31:06;;;;;;;13.00;12.60;;;19.00;64.10;;;;;;5030991;28;20461;-51
2021/12/06 02:33:32;;;;;;;13.33;12.63;;;19.00;64.20;;;;;;5030959;28;20445;-51
2021/12/06 02:35:59;;;;;;;12.90;12.60;;;19.00;64.40;;;;;;5031153;28;20942;-57
2021/12/06 02:38:28;;;;;;;12.50;12.10;;;19.00;64.80;;;;;;5033306;28;20996;-51
2021/12/06 02:40:54;;;;;;;12.20;11.90;;;19.00;64.90;;;;;;5034341;28;20445;-51
2021/12/06 02:43:21;;;;;;;12.93;12.53;;;18.90;64.90;;;;;;5034437;28;20881;-57
2021/12/06 02:45:48;;;;;;;13.70;13.30;;;18.90;64.70;;;;;;5034535;28;20452;-51
2021/12/06 02:48:15;;;;;;;12.77;12.37;;;18.90;65.00;;;;;;5033734;28;20471;-56
2021/12/06 02:50:47;;;;;;;12.37;11.97;;;18.90;65.20;;;;;;5034060;28;20448;-53
2021/12/06 02:53:14;;;;;;;13.43;13.03;;;18.80;65.40;;;;;;5034246;28;20436;-52
2021/12/06 02:55:43;;;;;;;13.40;13.00;;;18.80;65.70;;;;;;5034485;28;20437;-51
2021/12/06 02:58:16;;;;;;;13.10;12.70;;;18.80;65.80;;;;;;5034036;28;21178;-55
2021/12/06 03:00:46;;;;;;;12.73;12.43;;;18.90;65.80;;;;;;5034257;28;20453;-51
2021/12/06 03:03:13;;;;;;;13.23;12.83;;;18.90;65.60;;;;;;5034140;28;20441;-51
2021/12/06 03:05:40;;;;;;;13.40;13.00;;;18.90;65.60;;;;;;5034237;28;20472;-57
2021/12/06 03:08:07;;;;;;;13.40;13.00;;;18.90;65.70;;;;;;5033980;28;20491;-51
2021/12/06 03:10:34;;;;;;;13.57;13.17;;;18.90;66.60;;;;;;5034166;28;20452;-52
2021/12/06 03:13:02;;;;;;;12.43;12.03;;;18.80;65.80;;;;;;5033983;28;20441;-53
2021/12/06 03:15:30;;;;;;;12.53;12.13;;;18.80;66.00;;;;;;5034075;28;20452;-51
2021/12/06 03:17:57;;;;;;;14.20;13.80;;;18.80;66.20;;;;;;5033559;28;20473;-51
2021/12/06 03:20:25;;;;;;;13.40;13.00;;;18.80;66.60;;;;;;5033950;28;20457;-51
2021/12/06 03:22:52;;;;;;;12.50;12.20;;;18.80;66.70;;;;;;5033866;28;20452;-51
2021/12/06 03:25:19;;;;;;;12.80;12.50;;;18.80;66.70;;;;;;5033946;28;20452;-55
2021/12/06 03:27:47;;;;;;;13.03;12.63;;;18.80;66.60;;;;;;5033638;28;20442;-51
2021/12/06 03:30:15;;;;;;;13.77;13.27;;;18.80;66.70;;;;;;5033760;28;20492;-51
2021/12/06 03:32:42;;;;;;;13.90;13.50;;;18.80;66.90;;;;;;5033631;28;20449;-52
2021/12/06 03:35:12;;;;;;;12.57;12.27;;;18.70;67.20;;;;;;5033752;28;20471;-55
2021/12/06 03:37:39;;;;;;;12.13;11.83;;;18.60;67.40;;;;;;5033452;28;20510;-54
2021/12/06 03:40:07;;;;;;;12.77;12.40;;;18.60;67.70;;;;;;5033641;28;20445;-52
2021/12/06 03:42:34;;;;;;;13.37;12.97;;;18.50;67.90;;;;;;5033429;28;20452;-53
2021/12/06 03:45:01;;;;;;;13.00;12.60;;;18.50;68.40;;;;;;5033532;28;20989;-53
2021/12/06 03:47:31;;;;;;;12.77;12.47;;;18.50;68.40;;;;;;5033252;28;20452;-55
2021/12/06 03:49:59;;;;;;;13.30;12.90;;;18.50;68.40;;;;;;5032872;28;20461;-54
2021/12/06 03:52:26;;;;;;;13.67;13.27;;;18.50;68.50;;;;;;5033059;28;20441;-59
2021/12/06 03:54:54;;;;;;;13.30;12.90;;;18.50;68.60;;;;;;5033586;28;20445;-54
2021/12/06 03:57:22;;;;;;;12.50;12.10;;;18.60;68.70;;;;;;5032983;28;20480;-56
2021/12/06 03:59:52;;;;;;;12.83;12.47;;;18.70;68.30;;;;;;5033138;28;20476;-53
2021/12/06 04:02:22;;;;;;;13.77;13.37;;;18.80;67.90;;;;;;5033001;28;20449;-56
2021/12/06 04:04:50;;;;;;;14.33;13.60;;;18.90;67.80;;;;;;5033346;28;20806;-55
2021/12/06 04:07:17;;;;;;;12.93;12.63;;;18.90;67.70;;;;;;5032784;28;20495;-53
2021/12/06 04:09:44;;;;;;;13.37;12.97;;;18.90;67.60;;;;;;5032985;28;20472;-56
2021/12/06 04:12:12;;;;;;;13.50;13.10;;;18.90;67.60;;;;;;5032796;28;20445;-53
2021/12/06 04:14:40;;;;;;;13.07;12.67;;;18.80;67.50;;;;;;5033050;28;20457;-57
2021/12/06 04:17:07;;;;;;;12.60;12.30;;;18.80;67.60;;;;;;5032703;28;20445;-53
2021/12/06 04:19:34;;;;;;;12.57;12.27;;;18.80;68.00;;;;;;5032798;28;20997;-56
2021/12/06 04:22:03;;;;;;;13.30;12.90;;;18.80;67.90;;;;;;5032564;28;20798;-55
2021/12/06 04:24:30;;;;;;;13.70;13.30;;;18.70;68.20;;;;;;5032852;28;20671;-54
2021/12/06 04:26:58;;;;;;;13.63;13.23;;;18.70;68.40;;;;;;5032480;28;20449;-54
2021/12/06 04:29:25;;;;;;;13.27;12.87;;;18.60;68.60;;;;;;5032595;28;20998;-59
2021/12/06 04:31:53;;;;;;;14.10;13.60;;;18.60;68.90;;;;;;5032509;28;20449;-56
2021/12/06 04:34:21;;;;;;;13.70;13.20;;;18.60;69.00;;;;;;5032571;28;20751;-56
2021/12/06 04:36:49;;;;;;;13.70;13.30;;;18.60;69.20;;;;;;5032374;28;21183;-52
2021/12/06 04:39:20;;;;;;;12.70;12.30;;;18.60;69.50;;;;;;5032190;28;20515;-55
2021/12/06 04:41:47;;;;;;;13.00;12.60;;;18.60;69.60;;;;;;5032296;28;20452;-52
2021/12/06 04:44:15;;;;;;;13.50;13.10;;;18.50;69.90;;;;;;5032367;28;20536;-53
2021/12/06 04:46:42;;;;;;;14.00;13.57;;;18.50;70.80;;;;;;5032144;28;20445;-54
2021/12/06 04:49:09;;;;;;;13.70;13.30;;;18.40;71.50;;;;;;5032109;28;20473;-60
2021/12/06 04:51:37;;;;;;;13.70;13.20;;;18.40;72.50;;;;;;5031967;28;20453;-54
2021/12/06 04:54:04;;;;;;;13.80;13.40;;;18.40;73.20;;;;;;5032085;28;21114;-53
2021/12/06 04:56:35;;;;;;;14.33;13.87;;;18.30;73.30;;;;;;5032052;28;20441;-54
2021/12/06 04:59:10;;;;;;;13.60;13.20;;;18.30;73.90;;;;;;5032132;28;21017;-51
2021/12/06 05:01:38;;;;;;;14.00;13.50;;;18.30;74.30;;;;;;5031184;28;20445;-56
2021/12/06 05:04:08;;;;;;;14.63;14.13;;;18.30;74.50;;;;;;5032124;28;20449;-50
2021/12/06 05:06:38;;;;;;;13.10;12.70;;;18.30;74.60;;;;;;5031822;28;20445;-51
2021/12/06 05:09:09;;;;;;;13.37;12.97;;;18.30;74.40;;;;;;5031796;28;20461;-51
2021/12/06 05:11:37;;;;;;;13.30;12.90;;;18.30;75.30;;;;;;5031849;28;20437;-54
2021/12/06 05:14:04;;;;;;;14.40;13.90;;;18.30;75.00;;;;;;5031767;28;20445;-53
2021/12/06 05:16:33;;;;;;;14.03;13.63;;;18.30;75.00;;;;;;5031715;28;20445;-51
2021/12/06 05:19:00;;;;;;;13.50;13.00;;;18.20;75.40;;;;;;5031590;28;20906;-54
2021/12/06 05:21:27;;;;;;;14.60;14.10;;;18.20;75.70;;;;;;5031781;28;20449;-54
2021/12/06 05:23:53;;;;;;;14.23;13.83;;;18.20;76.10;;;;;;5031785;28;20448;-52
2021/12/06 05:26:20;;;;;;;14.93;14.40;;;18.10;76.20;;;;;;5031567;28;20452;-52
2021/12/06 05:28:49;;;;;;;17.73;16.10;;;18.20;79.30;;;;;;5031617;28;20465;-51
2021/12/06 05:31:19;;;;;;;15.90;14.53;;;18.30;99.20;;;;;;5031672;28;20457;-52
2021/12/06 05:33:52;;;;;;;15.30;13.80;;;18.30;99.90;;;;;;5031470;28;20449;-55
2021/12/06 05:36:19;;;;;;;14.43;12.97;;;18.30;99.90;;;;;;5031353;28;20444;-51
2021/12/06 05:38:45;;;;;;;14.40;11.23;;;18.40;99.90;;;;;;5061523;22;20500;-49
2021/12/06 05:41:12;;;;;;;14.33;11.80;;;18.50;99.90;;;;;;5051188;28;20440;-47
2021/12/06 05:43:39;;;;;;;24.97;11.90;;;18.50;99.90;;;;;;5051314;28;20459;-46
2021/12/06 05:46:07;;;;;;;15.33;8.90;;;18.60;99.90;;;;;;5051411;28;20455;-46
2021/12/06 05:48:34;;;;;;;13.07;7.50;;;18.60;99.90;;;;;;5050775;28;20472;-46
2021/12/06 05:51:01;;;;;;;19.53;10.70;;;18.70;99.90;;;;;;5051281;28;20823;-46
2021/12/06 05:53:28;;;;;;;13.80;8.70;;;18.90;99.90;;;;;;5051031;28;20455;-46
2021/12/06 05:55:55;;;;;;;22.23;14.10;;;19.30;99.90;;;;;;5050563;28;20779;-47
2021/12/06 05:58:26;;;;;;;14.90;12.13;;;19.90;99.90;;;;;;5051094;28;20538;-47
2021/12/06 06:00:53;;;;;;;17.03;13.43;;;20.30;99.90;;;;;;5051168;28;20448;-47
2021/12/06 06:03:21;;;;;;;17.67;15.67;;;20.60;99.90;;;;;;5050980;28;20788;-47
2021/12/06 06:05:48;;;;;;;16.17;14.80;;;20.70;99.90;;;;;;5051040;28;20436;-47
2021/12/06 06:08:16;;;;;;;15.50;14.20;;;20.80;99.90;;;;;;5051022;28;20463;-47
2021/12/06 06:10:45;;;;;;;15.53;14.10;;;20.90;99.90;;;;;;5051142;28;20448;-49
2021/12/06 06:13:12;;;;;;;18.27;15.20;;;20.90;99.90;;;;;;5052948;28;20459;-46
2021/12/06 06:15:39;;;;;;;16.00;14.70;;;20.90;99.90;;;;;;5055213;28;20813;-46
2021/12/06 06:18:07;;;;;;;15.80;14.60;;;20.80;99.90;;;;;;5054871;28;21086;-47
2021/12/06 06:20:39;;;;;;;17.57;16.10;;;20.80;99.90;;;;;;5054810;28;20439;-50
2021/12/06 06:23:07;;;;;;;15.43;14.50;;;20.80;99.90;;;;;;5054362;28;20444;-45
2021/12/06 06:25:34;;;;;;;19.27;17.57;;;20.80;99.90;;;;;;5054355;28;20440;-46
2021/12/06 06:28:01;;;;;;;16.77;15.67;;;20.70;99.90;;;;;;5054242;28;20451;-46
2021/12/06 06:30:28;;;;;;;16.10;14.50;;;20.80;99.90;;;;;;5054507;28;20444;-49
2021/12/06 06:32:55;;;;;;;14.67;13.73;;;20.70;99.90;;;;;;5054283;28;20810;-45
2021/12/06 06:35:22;;;;;;;13.20;12.40;;;20.70;99.90;;;;;;5054695;28;20454;-46
2021/12/06 06:37:51;;;;;;;15.87;14.60;;;20.70;99.90;;;;;;5054664;28;20862;-46
2021/12/06 06:40:19;;;;;;;14.93;13.93;;;20.70;99.90;;;;;;5054483;28;20472;-46
2021/12/06 06:42:46;;;;;;;15.67;14.50;;;20.70;99.90;;;;;;5054398;28;20853;-46
2021/12/06 06:45:15;;;;;;;15.90;14.90;;;20.60;99.90;;;;;;5054643;28;20452;-48
2021/12/06 06:47:42;;;;;;;16.57;15.30;;;20.70;99.90;;;;;;5054516;28;20790;-47
2021/12/06 06:50:10;;;;;;;17.17;15.77;;;20.60;99.90;;;;;;5054428;28;20464;-47
2021/12/06 06:52:37;;;;;;;16.33;15.10;;;20.60;99.90;;;;;;5054268;28;20451;-46
2021/12/06 06:55:09;;;;;;;21.43;15.67;;;20.50;99.90;;;;;;5054308;28;20455;-46
2021/12/06 06:57:36;;;;;;;15.60;14.50;;;20.50;99.90;;;;;;5054399;28;20448;-45
2021/12/06 07:00:05;;;;;;;16.33;15.30;;;20.40;99.90;;;;;;5054044;28;20491;-49
2021/12/06 07:02:31;;;;;;;14.73;14.03;;;20.30;99.90;;;;;;5053977;28;20440;-46
2021/12/06 07:04:58;;;;;;;15.77;14.30;;;20.20;99.90;;;;;;5054226;28;20816;-48
2021/12/06 07:07:25;;;;;;;16.47;15.10;;;20.10;99.90;;;;;;5054115;28;20451;-46
2021/12/06 07:09:51;;;;;;;14.83;13.90;;;19.90;99.90;;;;;;5053938;28;20490;-47
2021/12/06 07:12:19;;;;;;;14.70;13.77;;;19.80;99.90;;;;;;5053978;28;20445;-47
2021/12/06 07:14:48;;;;;;;15.57;14.40;;;19.70;99.90;;;;;;5053980;28;20436;-46
2021/12/06 07:17:15;;;;;;;13.73;13.17;;;19.60;99.90;;;;;;5053871;28;20470;-48
2021/12/06 07:19:42;;;;;;;13.83;13.33;;;19.50;99.90;;;;;;5053791;28;20488;-46
2021/12/06 07:22:09;;;;;;;14.77;13.90;;;19.50;99.90;;;;;;5053559;28;20447;-46
2021/12/06 07:24:36;;;;;;;14.30;13.53;;;19.40;99.90;;;;;;5052868;28;20448;-49
2021/12/06 07:27:03;;;;;;;16.37;15.10;;;19.40;99.90;;;;;;5053755;28;20980;-48
2021/12/06 07:29:33;;;;;;;15.60;14.80;;;19.20;99.90;;;;;;5053637;28;20483;-50
2021/12/06 07:32:01;;;;;;;15.13;14.23;;;19.20;99.90;;;;;;5053500;28;20547;-48
2021/12/06 07:34:28;;;;;;;15.00;14.30;;;19.10;99.90;;;;;;5053664;28;20471;-46
2021/12/06 07:36:54;;;;;;;15.60;14.67;;;19.00;99.90;;;;;;5053612;28;20452;-48
2021/12/06 07:39:21;;;;;;;15.50;14.60;;;18.90;99.90;;;;;;5053129;28;20919;-46
2021/12/06 07:41:48;;;;;;;14.60;13.80;;;18.90;99.90;;;;;;5053378;28;20447;-45
2021/12/06 07:44:15;;;;;;;15.13;14.20;;;18.80;99.90;;;;;;5053340;28;20503;-47
2021/12/06 07:46:43;;;;;;;15.20;14.40;;;18.70;99.90;;;;;;5053339;28;20440;-46
2021/12/06 07:49:09;;;;;;;13.67;13.07;;;18.70;99.90;;;;;;5053336;28;21008;-45
2021/12/06 07:51:36;;;;;;;15.30;14.50;;;18.70;99.90;;;;;;5053149;28;20458;-45
2021/12/06 07:54:03;;;;;;;14.23;13.63;;;18.70;99.90;;;;;;5053271;28;20460;-48
2021/12/06 07:56:29;;;;;;;15.03;14.23;;;18.60;99.90;;;;;;5053197;28;20941;-46
2021/12/06 07:58:56;;;;;;;13.93;13.33;;;18.70;99.90;;;;;;5053030;28;20487;-48
2021/12/06 08:01:23;;;;;;;14.47;13.57;;;18.60;99.90;;;;;;5053103;28;20448;-46
2021/12/06 08:03:51;;;;;;;15.30;14.40;;;18.70;99.90;;;;;;5052895;28;20864;-47
2021/12/06 08:06:18;;;;;;;15.40;14.70;;;18.60;99.90;;;;;;5053011;28;20448;-48
2021/12/06 08:08:46;;;;;;;16.67;15.27;;;18.60;99.90;;;;;;5052954;28;20472;-45
2021/12/06 08:11:15;;;;;;;14.10;13.40;;;18.50;99.90;;;;;;5052936;28;20499;-46
2021/12/06 08:13:44;;;;;;;14.60;13.87;;;18.50;99.90;;;;;;5052658;28;20447;-45
2021/12/06 08:16:14;;;;;;;15.20;14.27;;;18.40;99.90;;;;;;5052781;28;20508;-46
2021/12/06 08:18:41;;;;;;;14.53;13.93;;;18.40;99.90;;;;;;5052654;28;20492;-47
2021/12/06 08:21:09;;;;;;;14.30;13.70;;;18.30;99.90;;;;;;5052835;28;20498;-45
2021/12/06 08:23:36;;;;;;;14.60;13.87;;;18.30;99.90;;;;;;5052521;28;20440;-45
2021/12/06 08:26:05;;;;;;;14.07;13.43;;;18.20;99.90;;;;;;5052704;28;20860;-49
2021/12/06 08:28:34;;;;;;;14.47;13.77;;;18.30;99.90;;;;;;5052584;28;20539;-46
2021/12/06 08:31:01;;;;;;;14.27;13.63;;;18.30;99.90;;;;;;5052571;28;20964;-48
2021/12/06 08:33:28;;;;;;;13.67;13.17;;;18.30;99.90;;;;;;5052259;28;20479;-45
2021/12/06 08:35:55;;;;;;;14.23;13.63;;;18.30;99.90;;;;;;5052313;28;20444;-45
2021/12/06 08:38:26;;;;;;;14.00;13.50;;;18.20;99.90;;;;;;5052128;28;20472;-46
2021/12/06 08:40:53;;;;;;;14.33;13.83;;;18.20;99.90;;;;;;5052348;28;20448;-45
2021/12/06 08:43:21;;;;;;;13.60;13.00;;;18.10;99.90;;;;;;5052225;28;20921;-46
2021/12/06 08:45:51;;;;;;;13.57;13.07;;;18.10;99.90;;;;;;5052147;28;20447;-47
2021/12/06 08:48:18;;;;;;;13.73;13.23;;;18.10;99.90;;;;;;5052212;28;20452;-46
2021/12/06 08:50:45;;;;;;;13.67;13.20;;;18.00;99.90;;;;;;5052041;28;20463;-46
2021/12/06 08:53:12;;;;;;;14.23;13.60;;;18.00;99.90;;;;;;5051865;28;20436;-45
2021/12/06 08:55:41;;;;;;;14.60;14.00;;;18.00;99.90;;;;;;5051992;28;20451;-45
2021/12/06 08:58:07;;;;;;;15.73;14.97;;;18.00;99.90;;;;;;5051867;28;20444;-46
2021/12/06 09:00:37;;;;;;;14.90;14.30;;;18.00;99.90;;;;;;5051825;28;20487;-46
2021/12/06 09:03:05;;;;;;;15.00;14.30;;;17.90;99.90;;;;;;5051753;28;20984;-45
2021/12/06 09:05:35;;;;;;;14.40;13.90;;;17.90;99.90;;;;;;5052041;28;20449;-45
2021/12/06 09:08:02;;;;;;;14.00;13.50;;;17.90;99.80;;;;;;5051794;28;20460;-45
2021/12/06 09:10:30;;;;;;;13.90;13.40;;;17.90;99.50;;;;;;5051951;28;20929;-46
2021/12/06 09:12:58;;;;;;;15.83;15.23;;;17.90;99.50;;;;;;5051671;28;20503;-48
2021/12/06 09:15:25;;;;;;;14.30;13.73;;;17.90;99.40;;;;;;5051628;28;20439;-46
2021/12/06 09:17:54;;;;;;;14.17;13.60;;;18.00;99.20;;;;;;5051698;28;20789;-45
2021/12/06 09:20:24;;;;;;;14.47;13.90;;;18.00;98.80;;;;;;5051528;28;20541;-46
2021/12/06 09:22:51;;;;;;;14.80;14.30;;;18.10;98.60;;;;;;5051439;28;20452;-48
2021/12/06 09:25:18;;;;;;;15.13;14.53;;;18.10;98.30;;;;;;5051606;28;20444;-48
2021/12/06 09:27:46;;;;;;;14.87;14.17;;;18.10;98.10;;;;;;5051580;28;20479;-47
2021/12/06 09:30:18;;;;;;;14.20;13.60;;;18.00;98.00;;;;;;5051393;28;20460;-47
2021/12/06 09:32:45;;;;;;;13.80;13.33;;;18.10;97.80;;;;;;5051250;28;20444;-48
2021/12/06 09:35:16;;;;;;;14.43;13.93;;;18.10;97.40;;;;;;5051487;28;20444;-45
2021/12/06 09:37:43;;;;;;;13.93;13.53;;;18.10;97.20;;;;;;5051475;28;20539;-46
2021/12/06 09:40:11;;;;;;;14.87;14.37;;;18.10;97.10;;;;;;5051161;28;20510;-46
2021/12/06 09:42:42;;;;;;;13.80;13.40;;;18.10;96.70;;;;;;5051335;28;20996;-47
2021/12/06 09:45:11;;;;;;;14.47;13.97;;;18.10;96.50;;;;;;5051494;28;20447;-46
2021/12/06 09:47:39;;;;;;;13.80;13.17;;;18.20;96.20;;;;;;5050903;28;20451;-47
2021/12/06 09:50:08;;;;;;;13.70;13.20;;;18.10;96.20;;;;;;5051275;28;20464;-45
2021/12/06 09:52:34;;;;;;;14.30;13.80;;;18.10;95.90;;;;;;5051210;28;20451;-45
2021/12/06 09:55:01;;;;;;;14.77;14.20;;;18.10;96.00;;;;;;5051307;28;20456;-47
2021/12/06 09:57:28;;;;;;;13.63;13.23;;;18.00;96.00;;;;;;5051351;28;20451;-45
2021/12/06 09:59:55;;;;;;;14.60;14.00;;;18.00;95.80;;;;;;5051077;28;20483;-45
2021/12/06 10:02:22;;;;;;;13.60;13.20;;;18.00;95.90;;;;;;5051045;28;20447;-46
2021/12/06 10:04:54;;;;;;;13.83;13.43;;;17.90;96.10;;;;;;5051219;28;20448;-45
2021/12/06 10:07:22;;;;;;;13.47;12.93;;;17.90;96.00;;;;;;5051351;28;20448;-45
2021/12/06 10:09:51;;;;;;;14.10;13.50;;;17.90;95.90;;;;;;5051041;28;20463;-47
2021/12/06 10:12:18;;;;;;;13.20;12.80;;;17.90;95.70;;;;;;5050928;28;20451;-47
2021/12/06 10:14:45;;;;;;;14.17;13.57;;;17.90;95.60;;;;;;5050958;28;20448;-45
2021/12/06 10:17:15;;;;;;;15.33;14.67;;;17.90;95.60;;;;;;5051022;28;20448;-45
2021/12/06 10:19:42;;;;;;;14.03;13.43;;;17.90;95.70;;;;;;5050851;28;20488;-47
2021/12/06 10:22:10;;;;;;;14.17;13.67;;;17.90;95.60;;;;;;5050840;28;20939;-48
2021/12/06 10:24:37;;;;;;;14.77;14.17;;;17.90;95.60;;;;;;5050990;28;20466;-45
2021/12/06 10:27:10;;;;;;;15.33;14.73;;;17.90;95.40;;;;;;5050852;28;20444;-45
2021/12/06 10:29:40;;;;;;;14.60;14.10;;;17.90;95.40;;;;;;5050953;28;20461;-46
2021/12/06 10:32:14;;;;;;;13.50;13.10;;;17.90;95.20;;;;;;5050681;28;20930;-45
2021/12/06 10:34:46;;;;;;;13.67;13.17;;;17.90;95.10;;;;;;5050897;28;20459;-46
2021/12/06 10:37:30;;;;;;;14.60;14.10;;;17.80;95.00;;;;;;5050905;28;20487;-46
2021/12/06 10:39:57;;;;;;;13.73;13.23;;;17.80;95.10;;;;;;5050693;28;20527;-45
2021/12/06 10:42:29;;;;;;;14.40;13.80;;;17.80;95.00;;;;;;5050471;28;20451;-45
2021/12/06 10:45:00;;;;;;;14.50;14.00;;;17.70;94.90;;;;;;5050529;28;20448;-45
2021/12/06 10:47:27;;;;;;;13.80;13.10;;;17.70;95.10;;;;;;5050810;28;20459;-47
2021/12/06 10:49:54;;;;;;;14.67;13.90;;;17.70;95.10;;;;;;5050612;28;20464;-47
2021/12/06 10:52:28;;;;;;;14.50;13.90;;;17.70;99.40;;;;;;5050636;28;20436;-49
2021/12/06 10:54:55;;;;;;;14.47;13.87;;;17.90;99.90;;;;;;5050201;28;20527;-46
2021/12/06 10:57:22;;;;;;;15.03;13.83;;;18.00;99.90;;;;;;5050694;28;20451;-45
2021/12/06 10:59:49;;;;;;;13.63;13.03;;;18.10;99.90;;;;;;5052165;28;20480;-47
2021/12/06 11:02:15;;;;;;;13.07;12.43;;;18.20;99.90;;;;;;5053943;28;20447;-46
2021/12/06 11:04:42;;;;;;;13.47;12.83;;;18.20;99.90;;;;;;5054242;28;20863;-46
2021/12/06 11:07:10;;;;;;;14.83;14.23;;;18.10;99.90;;;;;;5054091;28;20447;-48
2021/12/06 11:09:42;;;;;;;13.57;13.07;;;18.10;99.90;;;;;;5054020;28;21057;-47
2021/12/06 11:12:10;;;;;;;13.60;13.20;;;18.10;99.90;;;;;;5053545;28;20448;-46
2021/12/06 11:14:40;;;;;;;14.47;13.77;;;18.20;99.90;;;;;;5053722;28;20505;-46
2021/12/06 11:17:08;;;;;;;13.80;13.23;;;18.20;99.90;;;;;;5053970;28;20455;-46
2021/12/06 11:19:36;;;;;;;14.43;13.83;;;18.20;99.90;;;;;;5053717;28;20487;-50
2021/12/06 11:22:05;;;;;;;14.70;14.00;;;18.20;99.90;;;;;;5053341;28;20448;-47
2021/12/06 11:24:38;;;;;;;14.17;13.43;;;18.20;99.90;;;;;;5053843;28;20479;-46
2021/12/06 11:27:09;;;;;;;14.63;14.03;;;18.20;99.90;;;;;;5053812;28;20479;-47
2021/12/06 11:29:39;;;;;;;14.97;14.20;;;18.20;99.90;;;;;;5053564;28;20479;-47
2021/12/06 11:32:09;;;;;;;15.40;14.70;;;18.20;99.90;;;;;;5053572;28;20453;-46
2021/12/06 11:34:38;;;;;;;14.43;13.80;;;18.10;99.90;;;;;;5053921;28;20452;-46
2021/12/06 11:37:14;;;;;;;15.37;14.50;;;18.10;99.90;;;;;;5053656;28;20447;-48
2021/12/06 11:39:41;;;;;;;15.10;14.57;;;18.10;99.90;;;;;;5067433;22;20492;-59
2021/12/06 11:42:09;;;;;;;16.10;15.50;;;18.10;99.90;;;;;;5033970;28;20445;-58
2021/12/06 11:44:38;;;;;;;15.10;14.50;;;18.10;99.80;;;;;;5034436;28;20445;-59
2021/12/06 11:47:09;;;;;;;15.93;15.13;;;18.10;99.50;;;;;;5034077;28;20448;-55
2021/12/06 11:49:39;;;;;;;15.70;14.70;;;18.10;99.10;;;;;;5033894;28;20469;-57
2021/12/06 11:52:09;;;;;;;16.20;15.30;;;18.10;98.90;;;;;;5033880;28;20449;-59
2021/12/06 11:54:38;;;;;;;15.90;15.20;;;18.10;98.50;;;;;;5033917;28;20954;-59
2021/12/06 11:57:19;;;;;;;15.27;14.47;;;18.10;98.30;;;;;;5033707;28;20452;-56
2021/12/06 11:59:54;;;;;;;14.93;14.23;;;18.10;98.40;;;;;;5033751;28;21005;-59
2021/12/06 12:02:40;;;;;;;14.77;14.23;;;18.00;97.90;;;;;;5033480;28;20456;-56
2021/12/06 12:05:16;;;;;;;15.70;15.00;;;18.00;97.80;;;;;;5033951;28;20453;-58
2021/12/06 12:08:09;;;;;;;14.93;14.37;;;18.00;97.70;;;;;;5033711;28;20441;-59
2021/12/06 12:10:41;;;;;;;14.40;13.80;;;17.90;97.60;;;;;;5031140;28;20472;-55
2021/12/06 12:13:11;;;;;;;14.50;13.90;;;17.90;97.50;;;;;;5033605;28;20448;-58
2021/12/06 12:15:39;;;;;;;14.67;13.93;;;17.90;97.40;;;;;;5033861;28;20811;-59
2021/12/06 12:18:06;;;;;;;14.20;13.63;;;17.80;97.40;;;;;;5033736;28;21004;-57
2021/12/06 12:20:35;;;;;;;14.60;14.10;;;17.90;97.30;;;;;;5033417;28;20489;-58
2021/12/06 12:23:08;;;;;;;13.97;13.43;;;17.80;97.10;;;;;;5033408;28;20503;-60
2021/12/06 12:25:38;;;;;;;13.63;13.10;;;17.80;97.20;;;;;;5033491;28;20519;-58
2021/12/06 12:28:16;;;;;;;15.63;15.03;;;17.80;97.00;;;;;;5033378;28;20450;-60
2021/12/06 12:30:45;;;;;;;14.90;14.30;;;17.80;96.80;;;;;;5033228;28;20966;-58
2021/12/06 12:33:13;;;;;;;12.90;12.50;;;17.80;96.70;;;;;;5033321;28;20453;-58
2021/12/06 12:35:42;;;;;;;14.47;13.80;;;17.90;96.40;;;;;;5033381;28;20449;-58
2021/12/06 12:38:11;;;;;;;14.03;13.53;;;18.00;95.90;;;;;;5032880;28;20551;-58
2021/12/06 12:40:42;;;;;;;14.50;13.80;;;18.00;95.60;;;;;;5032596;28;20496;-59